Time;durP1;ratioP1;P1;durP2;ratioP2;P2;SDS_P1;SDS_P2;PMS_P1;PMS_P2;Temp;Humidity;BMP_temperature;BMP_pressure;BME280_temperature;BME280_humidity;BME280_pressure;Samples;Min_cycle;Max_cycle;Signal;HPM_P1;HPM_P2
2022/09/22 00:00:31;;;;;;;1.42;0.80;;;9.40;99.90;;;;;;5058497;28;20043;-68
2022/09/22 00:02:58;;;;;;;0.93;0.82;;;8.80;99.90;;;;;;5041805;28;20036;-68
2022/09/22 00:05:24;;;;;;;1.95;1.35;;;8.50;99.90;;;;;;5058644;28;20095;-68
2022/09/22 00:07:52;;;;;;;2.10;0.90;;;8.20;99.90;;;;;;5025298;28;20048;-69
2022/09/22 00:10:20;;;;;;;2.45;1.05;;;8.20;99.90;;;;;;5025435;28;20097;-68
2022/09/22 00:12:46;;;;;;;1.42;0.82;;;8.20;99.90;;;;;;5058261;28;20087;-68
2022/09/22 00:15:12;;;;;;;1.73;0.90;;;8.70;99.90;;;;;;5058474;28;20040;-68
2022/09/22 00:17:38;;;;;;;2.92;1.05;;;8.20;99.90;;;;;;5058206;28;20041;-68
2022/09/22 00:20:05;;;;;;;1.65;0.88;;;8.20;99.90;;;;;;5041368;28;20047;-68
2022/09/22 00:22:32;;;;;;;2.85;1.00;;;8.10;99.90;;;;;;5058043;28;20131;-68
2022/09/22 00:24:58;;;;;;;2.10;0.82;;;8.10;99.90;;;;;;5042008;28;20086;-69
2022/09/22 00:27:24;;;;;;;1.75;0.73;;;8.00;99.90;;;;;;5041363;28;20044;-68
2022/09/22 00:29:50;;;;;;;1.30;0.65;;;8.20;99.90;;;;;;5056900;28;20452;-70
2022/09/22 00:32:17;;;;;;;2.60;1.02;;;8.10;99.90;;;;;;5058158;28;20045;-68
2022/09/22 00:34:43;;;;;;;2.33;0.90;;;8.00;99.90;;;;;;5057867;28;20049;-68
2022/09/22 00:37:09;;;;;;;0.80;0.70;;;8.10;99.90;;;;;;5058025;28;20368;-68
2022/09/22 00:39:35;;;;;;;1.33;0.70;;;8.40;99.90;;;;;;5057746;28;20043;-68
2022/09/22 00:42:02;;;;;;;1.85;0.95;;;8.40;99.90;;;;;;5057707;28;20033;-68
2022/09/22 00:44:38;;;;;;;1.25;0.80;;;8.30;99.90;;;;;;5057738;28;20036;-68
2022/09/22 00:47:07;;;;;;;2.15;0.80;;;8.20;99.90;;;;;;5057605;28;20130;-68
2022/09/22 00:49:55;;;;;;;0.85;0.63;;;8.10;99.90;;;;;;5057664;28;20040;-68
2022/09/22 00:52:46;;;;;;;0.80;0.60;;;8.40;99.90;;;;;;5057539;28;20036;-69
2022/09/22 00:55:14;;;;;;;;;;;8.10;99.90;;;;;;5057814;28;20059;-68
2022/09/22 00:57:42;;;;;;;2.60;1.02;;;8.10;99.90;;;;;;5057354;28;19955;-68
2022/09/22 01:00:10;;;;;;;1.23;0.70;;;8.00;99.90;;;;;;5057380;28;20048;-67
2022/09/22 01:02:36;;;;;;;0.80;0.55;;;8.00;99.90;;;;;;5040688;28;20036;-68
2022/09/22 01:05:03;;;;;;;0.93;0.60;;;8.10;99.90;;;;;;5024616;28;20041;-68
2022/09/22 01:07:30;;;;;;;2.38;1.00;;;8.00;99.90;;;;;;5024237;28;20060;-68
2022/09/22 01:09:56;;;;;;;1.13;0.98;;;8.10;99.90;;;;;;5041044;28;20446;-68
2022/09/22 01:12:24;;;;;;;1.25;0.60;;;7.90;99.90;;;;;;5057336;28;20032;-68
2022/09/22 01:15:09;;;;;;;1.67;0.73;;;8.00;99.90;;;;;;5057146;28;20040;-68
2022/09/22 01:17:56;;;;;;;0.85;0.60;;;8.00;99.90;;;;;;5057112;28;20127;-68
2022/09/22 01:21:12;;;;;;;2.35;0.82;;;8.00;99.90;;;;;;5040122;28;20091;-68
2022/09/22 01:24:06;;;;;;;1.77;0.65;;;8.00;99.90;;;;;;5056903;28;20056;-68
2022/09/22 01:26:54;;;;;;;1.80;0.88;;;7.90;99.90;;;;;;5056869;28;20040;-69
2022/09/22 01:29:25;;;;;;;2.97;0.93;;;7.80;99.90;;;;;;5056752;28;20506;-68
2022/09/22 01:32:16;;;;;;;2.00;0.80;;;7.90;99.90;;;;;;5040476;28;20480;-69
2022/09/22 01:35:02;;;;;;;4.18;0.68;;;7.80;99.90;;;;;;5056771;28;20094;-68
2022/09/22 01:37:45;;;;;;;1.15;0.70;;;7.90;99.90;;;;;;5056650;28;20040;-68
2022/09/22 01:40:37;;;;;;;0.75;0.60;;;7.90;99.90;;;;;;5056211;28;20044;-68
2022/09/22 01:43:32;;;;;;;0.50;0.50;;;7.80;99.90;;;;;;5039897;28;20040;-68
2022/09/22 01:46:01;;;;;;;3.60;0.82;;;7.70;99.90;;;;;;5049089;28;20131;-68
2022/09/22 01:48:32;;;;;;;0.50;0.38;;;7.60;99.90;;;;;;5056335;28;20059;-68
2022/09/22 01:51:04;;;;;;;0.50;0.50;;;7.60;99.90;;;;;;5056337;28;20044;-68
2022/09/22 01:53:37;;;;;;;0.93;0.50;;;7.40;99.90;;;;;;5056581;28;20040;-68
2022/09/22 01:56:07;;;;;;;0.70;0.50;;;7.50;99.90;;;;;;5056583;28;20136;-68
2022/09/22 01:58:52;;;;;;;1.55;0.95;;;7.50;99.90;;;;;;5056206;28;20048;-68
2022/09/22 02:01:21;;;;;;;0.77;0.60;;;7.50;99.90;;;;;;5056206;28;20060;-68
2022/09/22 02:03:56;;;;;;;0.82;0.52;;;7.50;99.90;;;;;;5056149;28;20097;-68
2022/09/22 02:06:35;;;;;;;0.75;0.68;;;7.50;99.90;;;;;;5039453;28;20040;-70
2022/09/22 02:09:10;;;;;;;1.05;0.68;;;7.50;99.90;;;;;;5056006;28;20044;-68
2022/09/22 02:11:37;;;;;;;1.90;0.90;;;7.50;99.90;;;;;;5039459;28;20050;-68
2022/09/22 02:14:04;;;;;;;1.40;0.63;;;7.60;99.90;;;;;;5039706;28;20541;-68
2022/09/22 02:16:30;;;;;;;1.58;0.60;;;7.60;99.90;;;;;;5039687;28;20040;-68
2022/09/22 02:19:00;;;;;;;2.28;0.60;;;7.50;99.90;;;;;;5055883;28;20083;-69
2022/09/22 02:21:26;;;;;;;0.60;0.50;;;7.40;99.90;;;;;;5055794;28;20087;-68
2022/09/22 02:23:53;;;;;;;1.52;0.60;;;7.40;99.90;;;;;;5056096;28;20384;-68
2022/09/22 02:26:27;;;;;;;0.82;0.63;;;7.40;99.90;;;;;;5055803;28;20063;-68
2022/09/22 02:29:01;;;;;;;0.80;0.60;;;7.40;99.90;;;;;;5039141;28;20044;-69
2022/09/22 02:31:30;;;;;;;0.77;0.50;;;7.40;99.90;;;;;;5055843;28;20133;-68
2022/09/22 02:33:56;;;;;;;1.50;0.60;;;7.40;99.90;;;;;;5055899;28;20072;-69
2022/09/22 02:36:46;;;;;;;2.20;0.60;;;7.60;99.90;;;;;;5055559;28;20040;-68
2022/09/22 02:39:17;;;;;;;1.15;0.57;;;7.40;99.90;;;;;;5039261;28;20479;-68
2022/09/22 02:42:20;;;;;;;0.88;0.60;;;7.30;99.90;;;;;;5055865;28;20598;-67
2022/09/22 02:45:09;;;;;;;1.10;0.60;;;7.30;99.90;;;;;;5039123;28;20040;-67
2022/09/22 02:47:56;;;;;;;0.73;0.52;;;7.30;99.90;;;;;;5055493;28;20558;-67
2022/09/22 02:50:24;;;;;;;0.93;0.60;;;7.30;99.90;;;;;;5042550;28;20044;-68
2022/09/22 02:52:51;;;;;;;1.05;0.52;;;7.30;99.90;;;;;;5054542;28;20036;-68
2022/09/22 02:55:18;;;;;;;1.67;0.63;;;7.30;99.90;;;;;;5055357;28;20044;-68
2022/09/22 02:57:43;;;;;;;1.08;0.60;;;7.30;99.90;;;;;;5038909;28;20457;-70
2022/09/22 03:00:10;;;;;;;1.45;0.60;;;7.30;99.90;;;;;;5055426;28;20080;-68
2022/09/22 03:02:36;;;;;;;1.42;0.80;;;7.30;99.90;;;;;;5038708;28;20041;-67
2022/09/22 03:05:02;;;;;;;0.85;0.60;;;7.30;99.90;;;;;;5055490;28;20075;-68
2022/09/22 03:07:28;;;;;;;3.20;0.95;;;7.30;99.90;;;;;;5055130;28;20040;-68
2022/09/22 03:09:54;;;;;;;0.75;0.70;;;7.20;99.90;;;;;;5038643;28;20036;-68
2022/09/22 03:12:19;;;;;;;1.05;0.68;;;7.30;99.90;;;;;;5038611;28;20484;-68
2022/09/22 03:14:45;;;;;;;3.92;0.63;;;7.20;99.90;;;;;;5055136;28;20399;-68
2022/09/22 03:17:11;;;;;;;2.78;0.80;;;7.30;99.90;;;;;;5038561;28;20400;-67
2022/09/22 03:19:36;;;;;;;1.55;0.82;;;7.30;99.90;;;;;;5038554;28;20095;-68
2022/09/22 03:22:02;;;;;;;2.75;0.57;;;7.40;99.90;;;;;;5038328;28;20045;-68
2022/09/22 03:24:28;;;;;;;1.42;0.70;;;7.20;99.90;;;;;;5055365;28;20094;-68
2022/09/22 03:26:53;;;;;;;0.65;0.55;;;7.10;99.90;;;;;;5038441;28;20038;-68
2022/09/22 03:29:19;;;;;;;1.33;0.98;;;7.20;99.90;;;;;;5038378;28;20118;-68
2022/09/22 03:31:45;;;;;;;1.08;0.70;;;7.20;99.90;;;;;;5038344;28;20043;-68
2022/09/22 03:34:11;;;;;;;1.73;0.90;;;7.20;99.90;;;;;;5038609;28;20046;-68
2022/09/22 03:36:36;;;;;;;1.80;0.80;;;7.30;99.90;;;;;;5038563;28;20051;-68
2022/09/22 03:39:02;;;;;;;1.63;0.70;;;7.10;99.90;;;;;;5054819;28;20067;-69
2022/09/22 03:41:28;;;;;;;1.58;0.88;;;7.10;99.90;;;;;;5038559;28;20427;-68
2022/09/22 03:43:54;;;;;;;0.82;0.60;;;7.10;99.90;;;;;;5038347;28;20488;-69
2022/09/22 03:46:19;;;;;;;2.40;0.90;;;7.20;99.90;;;;;;5038472;28;20171;-68
2022/09/22 03:48:45;;;;;;;1.60;0.85;;;7.20;99.90;;;;;;5054739;28;20037;-68
2022/09/22 03:51:11;;;;;;;0.93;0.80;;;7.10;99.90;;;;;;5038247;28;20472;-68
2022/09/22 03:53:36;;;;;;;1.90;0.98;;;7.10;99.90;;;;;;5038246;28;20124;-68
2022/09/22 03:56:12;;;;;;;3.47;0.75;;;7.10;99.90;;;;;;5054776;28;20400;-68
2022/09/22 03:58:38;;;;;;;4.90;0.73;;;7.10;99.90;;;;;;5054644;28;20124;-68
2022/09/22 04:01:05;;;;;;;1.98;0.88;;;7.10;99.90;;;;;;5038327;28;20123;-68
2022/09/22 04:03:31;;;;;;;1.08;0.70;;;7.00;99.90;;;;;;5055628;28;20484;-68
2022/09/22 04:05:57;;;;;;;2.85;1.05;;;7.00;99.90;;;;;;5058639;28;20399;-68
2022/09/22 04:08:22;;;;;;;1.30;1.00;;;7.10;99.90;;;;;;5058356;28;20041;-68
2022/09/22 04:10:48;;;;;;;1.60;0.95;;;7.00;99.90;;;;;;5025268;28;20045;-67
2022/09/22 04:13:15;;;;;;;1.30;0.65;;;7.00;99.90;;;;;;5058602;28;20107;-68
2022/09/22 04:15:41;;;;;;;2.58;1.00;;;7.00;99.90;;;;;;5041596;28;20128;-68
2022/09/22 04:18:06;;;;;;;0.80;0.73;;;7.00;99.90;;;;;;5058076;28;20063;-68
2022/09/22 04:20:32;;;;;;;2.95;1.00;;;7.10;99.90;;;;;;5058348;28;20064;-68
2022/09/22 04:22:58;;;;;;;1.40;0.80;;;7.00;99.90;;;;;;5058061;28;20097;-68
2022/09/22 04:25:24;;;;;;;3.13;1.15;;;7.00;99.90;;;;;;5058129;28;20062;-68
2022/09/22 04:27:50;;;;;;;1.20;0.90;;;7.00;99.90;;;;;;5041341;28;20114;-67
2022/09/22 04:30:15;;;;;;;1.30;0.95;;;7.00;99.90;;;;;;5057975;28;20040;-68
2022/09/22 04:32:41;;;;;;;6.30;1.33;;;7.00;99.90;;;;;;5041284;28;20487;-68
2022/09/22 04:35:08;;;;;;;3.28;1.13;;;7.90;99.90;;;;;;5041556;28;20044;-68
2022/09/22 04:37:34;;;;;;;1.23;0.90;;;7.00;99.90;;;;;;5058178;28;20427;-68
2022/09/22 04:39:59;;;;;;;2.90;0.95;;;6.90;99.90;;;;;;5041061;28;20032;-68
2022/09/22 04:42:25;;;;;;;1.23;0.93;;;6.90;99.90;;;;;;5024688;28;20384;-68
2022/09/22 04:44:51;;;;;;;2.50;1.13;;;6.90;99.90;;;;;;5024710;28;20041;-68
2022/09/22 04:47:17;;;;;;;1.52;1.10;;;6.90;99.90;;;;;;5041104;28;20039;-68
2022/09/22 04:49:43;;;;;;;2.88;1.48;;;7.20;99.90;;;;;;5057626;28;20032;-68
2022/09/22 04:52:09;;;;;;;3.03;1.30;;;6.90;99.90;;;;;;5057504;28;20120;-68
2022/09/22 04:54:35;;;;;;;7.05;1.27;;;6.80;99.90;;;;;;5040947;28;20123;-68
2022/09/22 04:57:01;;;;;;;3.42;1.23;;;6.80;99.90;;;;;;5057396;28;20059;-68
2022/09/22 04:59:28;;;;;;;2.88;1.30;;;6.80;99.90;;;;;;5041216;28;20079;-68
2022/09/22 05:01:54;;;;;;;1.25;1.15;;;6.90;99.90;;;;;;5057347;28;20041;-68
2022/09/22 05:04:20;;;;;;;3.65;1.30;;;6.70;99.90;;;;;;5040998;28;20040;-67
2022/09/22 05:06:46;;;;;;;2.85;1.40;;;7.10;99.90;;;;;;5024158;28;20040;-68
2022/09/22 05:09:13;;;;;;;2.78;1.95;;;6.70;99.90;;;;;;5024009;28;20406;-68
2022/09/22 05:11:38;;;;;;;2.55;1.42;;;6.60;99.90;;;;;;5057410;28;20045;-68
2022/09/22 05:14:04;;;;;;;1.48;1.23;;;6.70;99.90;;;;;;5040810;28;20055;-68
2022/09/22 05:16:30;;;;;;;2.28;1.55;;;6.70;99.90;;;;;;5056380;28;20078;-68
2022/09/22 05:18:57;;;;;;;5.53;1.80;;;6.80;99.90;;;;;;5040587;28;20052;-68
2022/09/22 05:21:22;;;;;;;3.72;1.55;;;6.60;99.90;;;;;;5056821;28;20135;-68
2022/09/22 05:23:48;;;;;;;1.95;1.20;;;6.60;99.90;;;;;;5056967;28;20072;-69
2022/09/22 05:26:14;;;;;;;1.73;1.40;;;7.30;99.90;;;;;;5040319;28;20050;-68
2022/09/22 05:28:40;;;;;;;3.20;1.60;;;6.60;99.90;;;;;;5040274;28;20101;-68
2022/09/22 05:31:05;;;;;;;2.13;1.45;;;6.60;99.90;;;;;;5056751;28;20052;-68
2022/09/22 05:33:31;;;;;;;6.13;1.73;;;6.60;99.90;;;;;;5040484;28;20082;-68
2022/09/22 05:35:57;;;;;;;3.05;2.33;;;7.20;99.90;;;;;;5057001;28;20040;-69
2022/09/22 05:38:22;;;;;;;7.10;2.88;;;6.60;99.90;;;;;;5056729;28;20048;-70
2022/09/22 05:40:48;;;;;;;4.47;2.10;;;6.60;99.90;;;;;;5040416;28;20040;-68
2022/09/22 05:43:14;;;;;;;2.88;1.70;;;6.60;99.90;;;;;;5007439;28;20044;-68
2022/09/22 05:45:41;;;;;;;3.92;2.25;;;6.70;99.90;;;;;;5056529;28;20044;-68
2022/09/22 05:48:07;;;;;;;5.05;2.10;;;6.70;99.90;;;;;;5056369;28;20045;-69
2022/09/22 05:50:32;;;;;;;4.88;2.30;;;6.70;99.90;;;;;;5006982;28;20450;-69
2022/09/22 05:53:03;;;;;;;3.58;2.35;;;6.70;99.90;;;;;;5056359;28;20514;-68
2022/09/22 05:55:29;;;;;;;5.68;2.42;;;6.80;99.90;;;;;;5056425;28;20036;-67
2022/09/22 05:57:58;;;;;;;5.40;2.72;;;7.30;99.90;;;;;;5056426;28;20047;-69
2022/09/22 06:00:25;;;;;;;4.28;2.53;;;6.80;99.90;;;;;;5056704;28;20066;-69
2022/09/22 06:02:51;;;;;;;4.65;2.75;;;6.80;99.90;;;;;;5040057;28;20114;-68
2022/09/22 06:05:17;;;;;;;4.43;2.55;;;6.80;99.90;;;;;;5023123;28;20044;-69
2022/09/22 06:07:42;;;;;;;3.70;2.38;;;6.90;99.90;;;;;;5055905;28;20513;-69
2022/09/22 06:10:11;;;;;;;5.13;2.63;;;7.00;99.90;;;;;;5056332;28;20037;-73
2022/09/22 06:12:37;;;;;;;5.03;3.05;;;7.00;99.90;;;;;;5056200;28;20045;-72
2022/09/22 06:15:04;;;;;;;4.43;3.03;;;7.00;99.90;;;;;;5056224;28;20484;-69
2022/09/22 06:17:30;;;;;;;3.88;2.58;;;7.10;99.90;;;;;;5039358;28;20046;-69
2022/09/22 06:19:57;;;;;;;4.40;2.53;;;7.20;99.90;;;;;;5039232;28;20123;-70
2022/09/22 06:22:23;;;;;;;5.65;2.45;;;7.20;99.90;;;;;;5039277;28;20527;-68
2022/09/22 06:24:49;;;;;;;6.88;2.75;;;7.30;99.90;;;;;;5055840;28;20084;-69
2022/09/22 06:27:15;;;;;;;4.82;3.15;;;7.40;99.90;;;;;;5022660;28;20079;-69
2022/09/22 06:29:41;;;;;;;4.57;2.92;;;7.40;99.90;;;;;;5039113;28;20040;-68
2022/09/22 06:32:07;;;;;;;6.07;3.28;;;7.50;99.90;;;;;;5038980;28;20037;-68
2022/09/22 06:34:34;;;;;;;9.93;3.60;;;7.60;99.90;;;;;;5055943;28;20040;-69
2022/09/22 06:37:01;;;;;;;8.88;3.90;;;7.70;99.90;;;;;;5055829;28;20043;-69
2022/09/22 06:39:27;;;;;;;7.32;4.45;;;7.80;99.90;;;;;;5022470;28;20045;-69
2022/09/22 06:41:55;;;;;;;7.72;4.85;;;7.90;99.90;;;;;;5055545;28;20044;-69
2022/09/22 06:44:21;;;;;;;12.02;4.70;;;7.80;99.90;;;;;;5038826;28;20041;-68
2022/09/22 06:46:47;;;;;;;10.20;4.05;;;8.20;99.90;;;;;;5055458;28;20062;-69
2022/09/22 06:49:12;;;;;;;6.60;3.53;;;8.40;99.90;;;;;;5038939;28;20507;-68
2022/09/22 06:51:38;;;;;;;5.90;3.88;;;8.50;99.90;;;;;;5038781;28;20037;-69
2022/09/22 06:54:05;;;;;;;7.65;4.78;;;8.70;99.90;;;;;;5055367;28;20071;-68
2022/09/22 06:56:34;;;;;;;10.50;4.53;;;8.80;99.90;;;;;;5036946;28;20033;-69
2022/09/22 06:59:00;;;;;;;4.78;3.83;;;8.90;99.90;;;;;;5055192;28;20044;-68
2022/09/22 07:01:28;;;;;;;10.65;4.30;;;9.10;99.90;;;;;;5020574;28;20220;-68
2022/09/22 07:03:54;;;;;;;8.23;4.03;;;9.20;99.90;;;;;;5055322;28;20111;-68
2022/09/22 07:06:20;;;;;;;7.95;3.97;;;9.40;99.90;;;;;;5054927;28;20056;-68
2022/09/22 07:08:47;;;;;;;7.13;3.78;;;9.50;99.90;;;;;;5038509;28;20131;-69
2022/09/22 07:11:14;;;;;;;6.25;4.10;;;9.60;99.90;;;;;;5054968;28;20052;-68
2022/09/22 07:13:41;;;;;;;5.97;4.40;;;9.80;99.90;;;;;;5054996;28;20041;-68
2022/09/22 07:16:08;;;;;;;8.13;4.82;;;9.90;99.90;;;;;;5054852;28;20041;-68
2022/09/22 07:18:39;;;;;;;10.25;4.03;;;10.10;99.90;;;;;;5054942;28;20044;-68
2022/09/22 07:21:09;;;;;;;7.57;4.28;;;;;;;;;;5054968;28;20560;-68
2022/09/22 07:23:35;;;;;;;5.80;4.03;;;;;;;;;;5054930;28;20036;-69
2022/09/22 07:26:03;;;;;;;5.13;3.85;;;;;;;;;;5038245;28;20290;-69
2022/09/22 07:28:30;;;;;;;12.02;4.40;;;;;;;;;;5038212;28;20082;-68
2022/09/22 07:30:56;;;;;;;6.22;4.45;;;;;;;;;;5038472;28;20569;-69
2022/09/22 07:33:23;;;;;;;5.63;3.88;;;;;;;;;;5038369;28;20204;-68
2022/09/22 07:35:58;;;;;;;4.68;3.97;;;;;;;;;;5038476;28;20036;-68
2022/09/22 07:38:31;;;;;;;8.43;4.47;;;;;;;;;;5038872;28;20063;-68
2022/09/22 07:40:58;;;;;;;7.45;3.60;;;;;;;;;;5058809;28;20044;-70
2022/09/22 07:43:24;;;;;;;3.88;3.00;;;;;;;;;;5042456;28;20054;-68
2022/09/22 07:45:54;;;;;;;5.75;3.67;;;;;;;;;;5025668;28;20041;-69
2022/09/22 07:48:36;;;;;;;6.13;3.58;;;;;;;;;;5058851;28;20048;-68
2022/09/22 07:51:08;;;;;;;6.93;3.30;;;11.50;93.30;;;;;;5058572;28;20036;-69
2022/09/22 07:53:35;;;;;;;4.65;3.05;;;11.60;92.80;;;;;;5058628;28;20041;-69
2022/09/22 07:56:06;;;;;;;7.40;3.72;;;11.70;91.80;;;;;;5058455;28;20041;-69
2022/09/22 07:58:32;;;;;;;6.55;3.30;;;11.80;92.00;;;;;;5058783;28;20435;-69
2022/09/22 08:01:04;;;;;;;5.53;3.13;;;11.90;91.60;;;;;;5058298;28;20040;-69
2022/09/22 08:03:30;;;;;;;6.22;3.20;;;12.00;91.70;;;;;;5041780;28;20067;-69
2022/09/22 08:06:06;;;;;;;5.32;2.78;;;12.00;90.80;;;;;;5058321;28;20041;-70
2022/09/22 08:08:33;;;;;;;4.82;2.92;;;12.10;90.70;;;;;;5042860;28;20557;-69
2022/09/22 08:11:04;;;;;;;6.07;3.00;;;12.20;90.60;;;;;;5058491;28;20111;-69
2022/09/22 08:13:29;;;;;;;2.67;2.25;;;12.30;88.50;;;;;;5041618;28;20048;-69
2022/09/22 08:15:55;;;;;;;5.13;2.33;;;12.40;87.80;;;;;;5041643;28;20572;-70
2022/09/22 08:18:24;;;;;;;3.20;2.33;;;12.50;86.70;;;;;;5041711;28;20514;-69
2022/09/22 08:20:50;;;;;;;3.97;2.83;;;12.60;86.90;;;;;;5041397;28;20492;-69
2022/09/22 08:23:16;;;;;;;5.65;2.65;;;12.60;85.30;;;;;;5025128;28;20056;-69
2022/09/22 08:25:42;;;;;;;4.40;2.42;;;12.70;84.00;;;;;;5057855;28;20043;-68
2022/09/22 08:28:09;;;;;;;3.75;2.38;;;12.80;84.40;;;;;;5041229;28;20483;-69
2022/09/22 08:30:35;;;;;;;6.97;2.47;;;12.80;82.40;;;;;;5041592;28;20044;-69
2022/09/22 08:33:00;;;;;;;2.85;2.10;;;12.90;81.40;;;;;;5024996;28;20568;-69
2022/09/22 08:35:26;;;;;;;3.13;1.95;;;13.00;82.60;;;;;;5057951;28;20048;-69
2022/09/22 08:37:52;;;;;;;3.50;2.30;;;13.10;78.20;;;;;;5041050;28;20535;-68
2022/09/22 08:40:22;;;;;;;3.42;2.03;;;13.10;77.20;;;;;;5057764;28;20106;-68
2022/09/22 08:42:51;;;;;;;4.22;1.65;;;13.20;75.20;;;;;;5041096;28;20044;-69
2022/09/22 08:45:31;;;;;;;4.68;2.28;;;13.30;75.30;;;;;;5057673;28;20049;-69
2022/09/22 08:53:50;;;;;;;4.47;1.95;;;13.50;70.70;;;;;;5057749;28;20044;-69
2022/09/22 08:56:40;;;;;;;3.17;1.80;;;13.60;70.00;;;;;;5057391;28;20067;-68
2022/09/22 08:59:15;;;;;;;3.15;1.65;;;13.70;43.20;;;;;;5057435;28;20052;-69
2022/09/22 09:01:52;;;;;;;3.33;2.00;;;13.70;17.20;;;;;;5057690;28;20063;-69
2022/09/22 09:04:33;;;;;;;3.22;2.03;;;13.80;12.60;;;;;;5040677;28;20052;-68
2022/09/22 09:07:19;;;;;;;4.70;1.75;;;13.80;2.00;;;;;;5040893;28;20048;-69
2022/09/22 09:10:16;;;;;;;2.60;1.73;;;13.90;1.00;;;;;;5026687;28;20052;-69
2022/09/22 09:12:57;;;;;;;2.80;1.70;;;13.90;1.00;;;;;;5040697;28;20377;-69
2022/09/22 09:15:52;;;;;;;3.78;1.42;;;13.90;1.00;;;;;;5057116;28;20099;-69
2022/09/22 09:18:21;;;;;;;2.10;1.67;;;13.90;1.00;;;;;;5057008;28;20047;-69
2022/09/22 09:20:50;;;;;;;2.05;1.40;;;14.00;1.00;;;;;;5057062;28;20052;-68
2022/09/22 09:23:30;;;;;;;3.53;1.60;;;14.00;1.00;;;;;;5057023;28;20143;-68
2022/09/22 09:25:57;;;;;;;1.27;1.00;;;14.10;1.00;;;;;;5056962;28;20040;-68
2022/09/22 09:28:41;;;;;;;2.55;1.55;;;14.10;1.00;;;;;;5056790;28;20095;-68
2022/09/22 09:31:14;;;;;;;1.92;1.23;;;14.20;1.00;;;;;;5057040;28;20503;-68
2022/09/22 09:33:47;;;;;;;3.00;1.70;;;14.30;1.00;;;;;;5056874;28;20041;-68
2022/09/22 09:36:17;;;;;;;5.35;1.75;;;14.30;1.00;;;;;;5056829;28;20041;-68
2022/09/22 09:38:51;;;;;;;3.20;1.70;;;14.40;1.00;;;;;;5056757;28;20045;-68
2022/09/22 09:41:31;;;;;;;2.00;1.30;;;14.50;1.00;;;;;;5056663;28;20049;-68
2022/09/22 09:43:58;;;;;;;3.72;1.80;;;14.50;1.00;;;;;;5056841;28;20559;-69
2022/09/22 09:46:42;;;;;;;2.38;1.85;;;14.60;1.00;;;;;;5056388;28;20048;-68
2022/09/22 09:49:20;;;;;;;1.88;1.33;;;14.60;1.00;;;;;;5056369;28;20032;-68
2022/09/22 09:51:53;;;;;;;2.85;1.55;;;14.80;1.00;;;;;;5056617;28;20399;-68
2022/09/22 09:54:19;;;;;;;2.35;1.50;;;14.90;99.90;;;;;;5040180;28;20525;-68
2022/09/22 09:57:08;;;;;;;2.50;1.52;;;15.00;99.90;;;;;;5040259;28;20033;-68
2022/09/22 10:02:26;;;;;;;1.58;1.00;;;15.20;99.90;;;;;;5055843;28;20085;-68
2022/09/22 10:05:00;;;;;;;2.08;1.23;;;15.40;99.90;;;;;;5056119;28;20058;-69
2022/09/22 10:07:29;;;;;;;1.60;1.23;;;15.60;99.90;;;;;;5056019;28;20044;-70
2022/09/22 10:10:15;;;;;;;2.25;1.40;;;15.70;99.90;;;;;;5056132;28;20040;-69
2022/09/22 10:12:41;;;;;;;3.05;0.90;;;15.80;99.90;;;;;;5042028;28;20033;-69
2022/09/22 10:15:22;;;;;;;1.60;0.90;;;15.90;99.90;;;;;;5055939;28;20033;-68
2022/09/22 10:17:48;;;;;;;;;;;16.00;99.90;;;;;;5056400;28;20051;-69
2022/09/22 10:20:27;;;;;;;1.40;1.20;;;16.10;91.20;;;;;;5055779;28;20050;-68
2022/09/22 10:22:54;;;;;;;2.03;1.33;;;16.10;1.00;;;;;;5056250;28;20392;-69
2022/09/22 10:25:30;;;;;;;2.28;1.17;;;16.20;99.90;;;;;;5055968;28;20048;-69
2022/09/22 10:28:05;;;;;;;3.83;1.38;;;16.20;1.00;;;;;;5039272;28;20536;-70
2022/09/22 10:30:32;;;;;;;1.55;1.20;;;16.30;99.90;;;;;;5055656;28;20052;-69
2022/09/22 10:33:19;;;;;;;2.00;1.38;;;16.30;99.90;;;;;;5055940;28;20542;-70
2022/09/22 10:36:02;;;;;;;2.33;1.00;;;16.30;99.90;;;;;;5055813;28;20053;-69
2022/09/22 10:38:31;;;;;;;1.70;1.10;;;16.40;99.90;;;;;;5055540;28;20048;-69
2022/09/22 10:41:07;;;;;;;3.03;1.35;;;16.40;1.00;;;;;;5055487;28;20044;-69
2022/09/22 10:44:11;;;;;;;3.08;1.50;;;16.50;1.00;;;;;;5055739;28;20040;-69
2022/09/22 10:46:48;;;;;;;2.60;1.10;;;16.60;99.90;;;;;;5055654;28;20537;-70
2022/09/22 10:49:43;;;;;;;4.65;1.67;;;16.60;99.90;;;;;;5038679;28;20045;-69
2022/09/22 10:52:29;;;;;;;2.92;1.50;;;16.60;1.00;;;;;;5055492;28;20502;-68
2022/09/22 10:55:12;;;;;;;4.40;1.75;;;16.60;99.90;;;;;;5038628;28;20120;-69
2022/09/22 10:57:53;;;;;;;1.40;1.08;;;16.70;99.90;;;;;;5038841;28;20476;-69
2022/09/22 11:00:33;;;;;;;4.65;1.30;;;16.70;13.00;;;;;;5038660;28;20036;-69
2022/09/22 11:03:14;;;;;;;2.13;1.65;;;16.80;1.00;;;;;;5038784;28;20036;-69
2022/09/22 11:14:53;;;;;;;1.60;1.35;;;16.80;2.60;;;;;;5054364;28;20119;-69
2022/09/22 11:17:59;;;;;;;1.77;1.38;;;16.90;61.00;;;;;;5055252;28;20388;-69
2022/09/22 11:20:34;;;;;;;1.38;1.10;;;17.00;99.90;;;;;;5051136;28;20061;-69
2022/09/22 11:23:04;;;;;;;2.50;1.80;;;;;;;;;;5054948;28;20048;-69
2022/09/22 11:25:36;;;;;;;2.80;1.42;;;;;;;;;;5055236;28;20044;-69
2022/09/22 11:28:02;;;;;;;3.40;1.70;;;;;;;;;;5038294;28;20036;-69
2022/09/22 11:30:32;;;;;;;2.78;1.50;;;;;;;;;;5054958;28;20102;-69
2022/09/22 11:33:19;;;;;;;2.45;1.35;;;17.10;99.90;;;;;;5054879;28;20036;-69
2022/09/22 11:36:14;;;;;;;4.22;1.55;;;17.10;99.90;;;;;;5054878;28;20040;-69
2022/09/22 11:38:55;;;;;;;3.00;1.40;;;17.20;99.90;;;;;;5038368;28;20487;-69
2022/09/22 11:41:33;;;;;;;2.83;1.35;;;17.30;99.90;;;;;;5055156;28;20514;-69
2022/09/22 11:44:27;;;;;;;3.08;1.35;;;17.20;99.90;;;;;;5038201;28;20128;-69
2022/09/22 11:47:24;;;;;;;2.97;1.70;;;17.10;99.90;;;;;;5054868;28;20048;-69
2022/09/22 11:50:14;;;;;;;1.88;1.40;;;17.00;99.90;;;;;;5054639;28;20487;-69
2022/09/22 11:53:09;;;;;;;1.63;1.33;;;17.10;99.90;;;;;;5054578;28;20115;-69
2022/09/22 11:55:40;;;;;;;1.90;1.30;;;17.20;99.90;;;;;;5044152;28;20040;-68
2022/09/22 11:58:11;;;;;;;;;;;17.10;99.90;;;;;;5055084;28;20052;-68
2022/09/22 12:01:09;;;;;;;3.33;1.52;;;17.10;99.90;;;;;;5054978;28;20307;-69
2022/09/22 12:03:40;;;;;;;3.92;1.67;;;17.30;99.90;;;;;;5038114;28;20044;-69
2022/09/22 12:06:20;;;;;;;2.80;1.85;;;17.50;99.90;;;;;;5054576;28;20048;-69
2022/09/22 12:09:10;;;;;;;3.17;1.80;;;17.30;99.90;;;;;;5054546;28;20045;-68
2022/09/22 12:11:38;;;;;;;3.92;1.45;;;17.20;99.90;;;;;;5054572;28;20040;-69
2022/09/22 12:14:05;;;;;;;3.40;1.60;;;17.20;99.90;;;;;;5054607;28;20043;-69
2022/09/22 12:16:40;;;;;;;3.05;1.95;;;17.50;99.90;;;;;;5054873;28;20498;-69
2022/09/22 12:19:30;;;;;;;4.10;2.22;;;;;;;;;;5054520;28;20041;-69
2022/09/22 12:22:22;;;;;;;3.67;1.67;;;17.80;11.90;;;;;;5054397;28;20067;-70
2022/09/22 12:24:48;;;;;;;1.75;1.48;;;17.80;68.00;;;;;;5038843;28;20131;-70
2022/09/22 12:27:26;;;;;;;3.10;1.85;;;17.60;99.90;;;;;;5058014;28;20162;-70
2022/09/22 12:29:57;;;;;;;1.95;1.73;;;17.50;37.20;;;;;;5057818;28;20094;-68
2022/09/22 12:32:36;;;;;;;4.57;2.00;;;17.70;62.40;;;;;;5041611;28;20396;-68
2022/09/22 12:35:03;;;;;;;3.00;1.90;;;17.90;96.90;;;;;;5041256;28;20127;-70
2022/09/22 12:37:37;;;;;;;2.70;2.08;;;18.00;20.60;;;;;;5058109;28;20040;-69
2022/09/22 12:40:22;;;;;;;4.72;2.22;;;;;;;;;;5058090;28;20609;-69
2022/09/22 12:42:52;;;;;;;4.43;2.08;;;;;;;;;;5041323;28;20045;-68
2022/09/22 12:45:35;;;;;;;4.95;1.90;;;;;;;;;;5057789;28;20066;-68
2022/09/22 12:48:09;;;;;;;6.00;2.20;;;;;;;;;;5057745;28;20478;-69
2022/09/22 12:50:42;;;;;;;3.60;1.88;;;;;;;;;;5057624;28;20048;-69
2022/09/22 12:53:21;;;;;;;3.80;1.92;;;;;;;;;;5040867;28;20040;-68
2022/09/22 12:55:48;;;;;;;3.55;2.30;;;;;;;;;;5057381;28;20131;-69
2022/09/22 12:58:20;;;;;;;2.58;1.50;;;;;;;;;;5040972;28;20506;-68
2022/09/22 13:00:47;;;;;;;2.28;1.42;;;;;;;;;;5041062;28;20127;-68
2022/09/22 13:03:26;;;;;;;3.53;1.85;;;;;;;;;;5057307;28;20040;-68
2022/09/22 13:05:53;;;;;;;1.92;1.70;;;;;;;;;;5057491;28;20487;-69
2022/09/22 13:08:47;;;;;;;2.63;1.63;;;17.50;1.00;;;;;;5057075;28;20102;-68
2022/09/22 13:11:13;;;;;;;2.88;1.92;;;17.40;1.00;;;;;;5057332;28;20495;-69
2022/09/22 13:13:47;;;;;;;5.47;1.88;;;17.30;1.00;;;;;;5040470;28;20041;-68
2022/09/22 13:16:12;;;;;;;5.30;1.92;;;17.20;1.00;;;;;;5056962;28;20032;-69
2022/09/22 13:22:22;;;;;;;7.03;1.45;;;17.20;1.00;;;;;;3990164;28;23102;-75
2022/09/22 13:24:48;;;;;;;3.78;2.10;;;17.30;1.00;;;;;;5003773;28;20080;-69
2022/09/22 13:27:13;;;;;;;3.95;1.80;;;17.30;1.00;;;;;;5036937;28;20059;-69
2022/09/22 13:29:55;;;;;;;2.55;1.90;;;17.20;1.00;;;;;;5036802;28;20040;-69
2022/09/22 13:32:25;;;;;;;2.03;1.58;;;17.00;1.00;;;;;;5037371;28;20506;-69
2022/09/22 13:34:51;;;;;;;3.33;1.75;;;17.00;1.00;;;;;;5021084;28;20045;-69
2022/09/22 13:37:22;;;;;;;4.38;1.42;;;16.90;1.00;;;;;;5019587;28;20041;-69
2022/09/22 13:39:50;;;;;;;1.75;1.23;;;16.80;1.00;;;;;;5036699;28;20037;-69
2022/09/22 13:42:21;;;;;;;2.95;1.55;;;16.90;1.00;;;;;;5036843;28;20158;-69
2022/09/22 13:45:02;;;;;;;2.55;1.60;;;16.90;1.00;;;;;;5036551;28;20049;-69
2022/09/22 13:47:29;;;;;;;3.13;1.80;;;17.00;1.00;;;;;;5020092;28;20055;-69